createdAt,value
2022-11-08T00:01:42.104Z,5.13
2022-11-08T00:12:02.791Z,5.20
2022-11-08T00:22:05.226Z,5.45
2022-11-08T00:32:11.160Z,6.90
2022-11-08T00:42:13.723Z,4.22
2022-11-08T00:52:16.005Z,3.35
2022-11-08T01:02:18.458Z,5.47
2022-11-08T01:12:20.799Z,4.68
2022-11-08T01:22:23.138Z,3.45
2022-11-08T01:32:25.458Z,5.50
2022-11-08T01:42:31.390Z,5.53
2022-11-08T01:52:47.627Z,2.17
2022-11-08T02:02:55.124Z,5.90
2022-11-08T02:12:59.673Z,2.83
2022-11-08T02:23:20.537Z,3.97
2022-11-08T02:33:23.516Z,5.27
2022-11-08T02:43:26.600Z,3.35
2022-11-08T02:53:29.024Z,2.25
2022-11-08T03:03:31.267Z,2.42
2022-11-08T03:13:33.534Z,8.88
2022-11-08T03:23:35.869Z,5.40
2022-11-08T03:33:38.189Z,4.57
2022-11-08T03:43:40.445Z,4.22
2022-11-08T03:53:42.789Z,4.88
2022-11-08T04:03:45.357Z,2.08
2022-11-08T04:14:06.694Z,3.45
2022-11-08T04:24:08.986Z,5.10
2022-11-08T04:34:11.426Z,11.57
2022-11-08T04:44:15.706Z,11.30
2022-11-08T04:54:18.059Z,10.63
2022-11-08T05:04:20.344Z,11.95
2022-11-08T05:14:22.648Z,15.23
2022-11-08T05:24:24.965Z,12.05
2022-11-08T05:34:27.250Z,10.80
2022-11-08T05:44:29.645Z,11.55
2022-11-08T05:54:32.662Z,13.93
2022-11-08T06:04:34.988Z,16.17
2022-11-08T06:14:37.299Z,15.48
2022-11-08T06:24:39.841Z,13.70
2022-11-08T06:34:42.280Z,12.48
2022-11-08T06:44:44.891Z,13.18
2022-11-08T06:54:47.608Z,15.50
2022-11-08T07:04:50.169Z,18.58
2022-11-08T07:14:52.708Z,17.45
2022-11-08T07:24:55.111Z,13.10
2022-11-08T07:34:57.499Z,17.48
2022-11-08T07:45:00.194Z,26.23
2022-11-08T07:55:02.775Z,38.03
2022-11-08T08:05:05.788Z,28.63
2022-11-08T08:15:08.799Z,27.60
2022-11-08T08:25:11.666Z,27.05
2022-11-08T08:35:14.429Z,31.35
2022-11-08T08:45:16.884Z,31.63
2022-11-08T08:55:19.422Z,33.03
2022-11-08T09:05:21.939Z,26.77
2022-11-08T09:15:24.500Z,23.58
2022-11-08T09:25:27.112Z,37.80
2022-11-08T09:35:30.573Z,48.65
2022-11-08T09:45:46.688Z,30.63
2022-11-08T09:55:59.547Z,26.30
2022-11-08T10:06:31.055Z,18.83
2022-11-08T10:16:51.947Z,15.02
2022-11-08T10:26:58.157Z,13.73
2022-11-08T10:37:06.603Z,8.10
2022-11-08T10:47:35.402Z,9.93
2022-11-08T10:57:45.397Z,11.20
2022-11-08T11:07:57.568Z,9.25
2022-11-08T11:18:17.427Z,4.70
2022-11-08T11:28:20.309Z,4.55
2022-11-08T11:38:44.221Z,4.75
2022-11-08T11:48:52.158Z,4.25
2022-11-08T11:59:32.211Z,6.07
2022-11-08T12:09:56.344Z,3.88
2022-11-08T12:20:22.767Z,5.95
2022-11-08T12:30:40.382Z,5.55
2022-11-08T12:41:01.023Z,2.90
2022-11-08T12:51:36.819Z,3.08
2022-11-08T13:01:39.380Z,2.90
2022-11-08T13:12:09.317Z,4.35
2022-11-08T13:22:32.276Z,2.75
2022-11-08T13:32:54.047Z,2.03
2022-11-08T13:42:58.556Z,30.08
2022-11-08T13:53:18.945Z,10.50
2022-11-08T14:03:47.406Z,2.75
2022-11-08T14:14:12.564Z,3.72
2022-11-08T14:24:22.589Z,3.90
2022-11-08T14:34:31.598Z,9.10
2022-11-08T14:44:35.137Z,10.02
2022-11-08T14:54:40.530Z,3.45
2022-11-08T15:04:42.760Z,3.75
2022-11-08T15:14:57.668Z,24.27
2022-11-08T15:25:15.652Z,7.28
2022-11-08T15:35:38.503Z,31.80
2022-11-08T15:45:52.887Z,9.38
2022-11-08T15:56:02.746Z,7.40
2022-11-08T16:06:05.065Z,9.82
2022-11-08T16:16:12.185Z,28.40
2022-11-08T16:26:17.267Z,24.42
2022-11-08T16:36:24.635Z,20.25
2022-11-08T16:46:27.063Z,70.13
2022-11-08T16:56:29.493Z,88.22
2022-11-08T17:06:31.860Z,31.88
2022-11-08T17:16:34.135Z,21.05
2022-11-08T17:26:36.422Z,18.48
2022-11-08T17:36:38.615Z,7.32
2022-11-08T17:46:40.859Z,45.33
2022-11-08T17:56:43.063Z,48.83
2022-11-08T18:06:45.385Z,26.33
2022-11-08T18:16:49.236Z,35.92
2022-11-08T18:26:51.620Z,23.58
2022-11-08T18:36:54.060Z,32.00
2022-11-08T18:46:56.230Z,21.10
2022-11-08T18:56:58.584Z,21.27
2022-11-08T19:07:00.845Z,20.05
2022-11-08T19:17:03.096Z,55.67
2022-11-08T19:27:06.197Z,85.10
2022-11-08T19:37:08.441Z,53.67
2022-11-08T19:47:10.623Z,45.20
2022-11-08T19:57:12.855Z,28.40
2022-11-08T20:07:15.170Z,24.60
2022-11-08T20:17:17.826Z,31.17
2022-11-08T20:27:20.065Z,25.10
2022-11-08T20:37:22.233Z,58.40
2022-11-08T20:47:24.449Z,79.63
2022-11-08T20:57:26.595Z,20.02
2022-11-08T21:17:50.959Z,30.58
2022-11-08T21:27:53.195Z,41.53
2022-11-08T21:40:13.952Z,99.20
2022-11-08T21:50:16.426Z,38.55
2022-11-08T22:00:18.815Z,32.88
2022-11-08T22:10:21.036Z,43.17
2022-11-08T22:20:23.277Z,34.92
2022-11-08T22:30:25.424Z,31.95
2022-11-08T22:40:27.598Z,33.42
2022-11-08T22:50:29.742Z,36.35
2022-11-08T23:00:31.915Z,30.85
2022-11-08T23:10:54.506Z,29.55
2022-11-08T23:21:15.162Z,31.63
2022-11-08T23:31:35.497Z,30.10
2022-11-08T23:41:56.127Z,26.35
2022-11-08T23:51:58.365Z,39.00
